sensor_id;sensor_type;location;lat;lon;timestamp;pressure;altitude;pressure_sealevel;temperature;humidity
58771;BME280;44539;42.962;1.596;2023-03-18T08:27:41;96652.78;;;9.22;100.00
58771;BME280;44539;42.962;1.596;2023-03-18T08:30:08;96645.16;;;9.42;100.00
58771;BME280;44539;42.962;1.596;2023-03-18T08:32:34;96644.38;;;9.56;100.00
58771;BME280;44539;42.962;1.596;2023-03-18T08:34:59;96642.16;;;9.59;100.00
58771;BME280;44539;42.962;1.596;2023-03-18T08:37:27;96648.41;;;9.67;100.00
58771;BME280;44539;42.962;1.596;2023-03-18T08:39:52;96645.47;;;9.76;100.00
58771;BME280;44539;42.962;1.596;2023-03-18T08:42:18;96645.75;;;9.81;100.00
58771;BME280;44539;42.962;1.596;2023-03-18T08:44:44;96652.53;;;9.84;100.00
58771;BME280;44539;42.962;1.596;2023-03-18T08:47:09;96649.41;;;9.95;100.00
58771;BME280;44539;42.962;1.596;2023-03-18T08:49:35;96653.06;;;10.09;100.00
58771;BME280;44539;42.962;1.596;2023-03-18T08:52:01;96654.88;;;10.23;100.00
58771;BME280;44539;42.962;1.596;2023-03-18T08:54:27;96661.22;;;10.37;100.00
58771;BME280;44539;42.962;1.596;2023-03-18T08:56:52;96663.75;;;10.46;100.00
58771;BME280;44539;42.962;1.596;2023-03-18T08:59:19;96649.88;;;10.65;100.00
58771;BME280;44539;42.962;1.596;2023-03-18T09:01:45;96660.25;;;10.81;100.00
58771;BME280;44539;42.962;1.596;2023-03-18T09:04:12;96659.50;;;10.88;100.00
58771;BME280;44539;42.962;1.596;2023-03-18T09:06:39;96659.03;;;10.99;100.00
58771;BME280;44539;42.962;1.596;2023-03-18T09:09:05;96655.09;;;11.16;100.00
58771;BME280;44539;42.962;1.596;2023-03-18T09:11:31;96655.06;;;11.38;98.59
58771;BME280;44539;42.962;1.596;2023-03-18T09:13:56;96653.13;;;11.53;96.84
58771;BME280;44539;42.962;1.596;2023-03-18T09:16:21;96655.06;;;11.66;97.27
58771;BME280;44539;42.962;1.596;2023-03-18T09:18:47;96659.66;;;11.79;95.11
58771;BME280;44539;42.962;1.596;2023-03-18T09:21:12;96662.94;;;11.81;92.65
58771;BME280;44539;42.962;1.596;2023-03-18T09:23:38;96665.28;;;11.91;94.14
58771;BME280;44539;42.962;1.596;2023-03-18T09:26:03;96664.75;;;12.09;93.92
58771;BME280;44539;42.962;1.596;2023-03-18T09:28:29;96659.94;;;12.25;92.44
58771;BME280;44539;42.962;1.596;2023-03-18T09:30:55;96661.41;;;12.35;90.28
58771;BME280;44539;42.962;1.596;2023-03-18T09:33:21;96664.09;;;12.41;90.02
58771;BME280;44539;42.962;1.596;2023-03-18T09:35:47;96666.22;;;12.53;89.69
58771;BME280;44539;42.962;1.596;2023-03-18T09:38:14;96667.00;;;12.46;90.19
58771;BME280;44539;42.962;1.596;2023-03-18T09:40:50;96671.91;;;12.50;89.68
58771;BME280;44539;42.962;1.596;2023-03-18T09:43:45;96665.81;;;12.69;87.46
58771;BME280;44539;42.962;1.596;2023-03-18T09:46:31;96666.28;;;12.79;86.46
58771;BME280;44539;42.962;1.596;2023-03-18T09:54:55;96665.91;;;12.89;87.08
58771;BME280;44539;42.962;1.596;2023-03-18T09:57:27;96673.91;;;13.02;86.83
58771;BME280;44539;42.962;1.596;2023-03-18T10:00:04;96666.13;;;13.14;84.99
58771;BME280;44539;42.962;1.596;2023-03-18T10:02:40;96668.25;;;13.39;82.76
58771;BME280;44539;42.962;1.596;2023-03-18T10:05:16;96668.88;;;13.41;83.32
58771;BME280;44539;42.962;1.596;2023-03-18T10:07:46;96669.28;;;13.38;82.22
58771;BME280;44539;42.962;1.596;2023-03-18T10:10:23;96675.44;;;13.58;81.59
58771;BME280;44539;42.962;1.596;2023-03-18T10:12:58;96665.97;;;13.69;79.19
58771;BME280;44539;42.962;1.596;2023-03-18T10:15:33;96668.84;;;13.87;79.01
58771;BME280;44539;42.962;1.596;2023-03-18T10:18:22;96661.59;;;14.01;77.89
58771;BME280;44539;42.962;1.596;2023-03-18T10:26:23;96665.59;;;14.44;75.73
58771;BME280;44539;42.962;1.596;2023-03-18T10:32:02;96662.63;;;14.14;79.31
58771;BME280;44539;42.962;1.596;2023-03-18T10:34:51;96658.41;;;14.38;76.45
58771;BME280;44539;42.962;1.596;2023-03-18T10:40:15;96652.84;;;14.46;75.24
58771;BME280;44539;42.962;1.596;2023-03-18T10:42:42;96649.09;;;14.67;73.30
58771;BME280;44539;42.962;1.596;2023-03-18T10:45:24;96660.78;;;14.73;74.77
58771;BME280;44539;42.962;1.596;2023-03-18T10:50:36;96663.63;;;14.78;73.02
58771;BME280;44539;42.962;1.596;2023-03-18T10:56:04;96648.34;;;14.85;72.62
58771;BME280;44539;42.962;1.596;2023-03-18T10:58:30;96654.03;;;15.02;71.91
58771;BME280;44539;42.962;1.596;2023-03-18T11:00:56;96644.13;;;15.09;72.13
58771;BME280;44539;42.962;1.596;2023-03-18T11:03:26;96644.28;;;15.14;71.22
58771;BME280;44539;42.962;1.596;2023-03-18T11:05:54;96648.38;;;15.17;71.51
58771;BME280;44539;42.962;1.596;2023-03-18T11:11:01;96647.81;;;15.08;71.32
58771;BME280;44539;42.962;1.596;2023-03-18T11:13:37;96644.81;;;15.23;69.27
58771;BME280;44539;42.962;1.596;2023-03-18T11:16:03;96647.03;;;15.32;69.62
58771;BME280;44539;42.962;1.596;2023-03-18T11:18:28;96631.53;;;15.66;68.94
58771;BME280;44539;42.962;1.596;2023-03-18T11:20:58;96636.22;;;15.96;68.21
58771;BME280;44539;42.962;1.596;2023-03-18T11:23:36;96633.38;;;15.41;67.39
58771;BME280;44539;42.962;1.596;2023-03-18T11:28:47;96625.47;;;15.78;66.91
58771;BME280;44539;42.962;1.596;2023-03-18T11:31:16;96634.91;;;15.55;66.64
58771;BME280;44539;42.962;1.596;2023-03-18T11:33:42;96641.91;;;15.81;66.60
58771;BME280;44539;42.962;1.596;2023-03-18T11:36:12;96644.88;;;15.73;65.03
58771;BME280;44539;42.962;1.596;2023-03-18T11:38:40;96638.72;;;15.66;67.21
58771;BME280;44539;42.962;1.596;2023-03-18T11:41:15;96631.31;;;16.11;65.69
58771;BME280;44539;42.962;1.596;2023-03-18T11:43:54;96632.78;;;16.26;64.70
58771;BME280;44539;42.962;1.596;2023-03-18T11:46:22;96633.75;;;16.13;64.62
58771;BME280;44539;42.962;1.596;2023-03-18T11:48:49;96633.88;;;16.55;65.08
58771;BME280;44539;42.962;1.596;2023-03-18T11:54:13;96626.66;;;16.19;64.81
58771;BME280;44539;42.962;1.596;2023-03-18T11:59:54;96640.31;;;16.66;63.71
58771;BME280;44539;42.962;1.596;2023-03-18T12:13:40;96629.88;;;15.90;67.13
58771;BME280;44539;42.962;1.596;2023-03-18T12:16:19;96623.84;;;15.70;67.66
